Time;durP1;ratioP1;P1;durP2;ratioP2;P2;SDS_P1;SDS_P2;PMS_P1;PMS_P2;Temp;Humidity;BMP_temperature;BMP_pressure;BME280_temperature;BME280_humidity;BME280_pressure;Samples;Min_cycle;Max_cycle;Signal;HPM_P1;HPM_P2
2023/06/18 00:01:21;;;;;;;10.43;9.33;;;21.50;87.00;;;;;;5045391;28;20606;-62
2023/06/18 00:03:49;;;;;;;10.07;9.00;;;21.50;87.10;;;;;;5051882;28;20203;-61
2023/06/18 00:06:16;;;;;;;18.17;10.77;;;21.50;87.20;;;;;;5045314;28;20214;-61
2023/06/18 00:08:45;;;;;;;11.30;10.03;;;21.50;87.40;;;;;;5033241;28;20625;-61
2023/06/18 00:11:12;;;;;;;11.20;10.10;;;21.40;87.50;;;;;;5039913;28;20203;-62
2023/06/18 00:13:39;;;;;;;10.63;9.53;;;21.40;87.60;;;;;;5040652;28;20898;-61
2023/06/18 00:16:07;;;;;;;10.63;9.50;;;21.40;87.80;;;;;;5043964;28;20213;-61
2023/06/18 00:18:34;;;;;;;12.80;10.00;;;21.30;87.80;;;;;;5047573;28;20199;-61
2023/06/18 00:21:07;;;;;;;21.10;9.20;;;21.30;87.90;;;;;;5046369;28;20206;-61
2023/06/18 00:23:35;;;;;;;11.23;9.60;;;21.20;87.90;;;;;;5044941;28;20245;-61
2023/06/18 00:26:02;;;;;;;17.33;9.53;;;21.20;88.00;;;;;;5046937;28;20203;-61
2023/06/18 00:28:29;;;;;;;13.53;10.43;;;21.10;88.10;;;;;;5042763;28;20227;-61
2023/06/18 00:30:56;;;;;;;13.63;10.50;;;21.10;88.10;;;;;;5031736;28;20211;-63
2023/06/18 00:33:24;;;;;;;13.03;10.23;;;21.00;87.90;;;;;;5044772;28;20228;-63
2023/06/18 00:35:56;;;;;;;11.73;10.50;;;21.00;87.80;;;;;;5046726;28;20199;-63
2023/06/18 00:38:26;;;;;;;12.73;11.43;;;21.00;87.90;;;;;;5041976;28;20202;-63
2023/06/18 00:40:55;;;;;;;10.47;9.47;;;20.90;87.90;;;;;;5042498;28;20257;-63
2023/06/18 00:43:22;;;;;;;11.17;9.03;;;20.90;88.10;;;;;;5045849;28;20290;-63
2023/06/18 00:45:50;;;;;;;13.07;11.27;;;20.90;88.30;;;;;;5028753;28;20221;-65
2023/06/18 00:48:17;;;;;;;12.60;11.30;;;20.90;88.30;;;;;;5047847;28;20198;-63
2023/06/18 00:50:44;;;;;;;12.23;10.97;;;20.90;88.30;;;;;;5055560;28;20207;-63
2023/06/18 00:53:13;;;;;;;14.47;12.30;;;20.90;88.40;;;;;;5044791;28;20622;-63
2023/06/18 00:55:41;;;;;;;13.13;11.07;;;20.90;88.40;;;;;;5028246;28;20222;-63
2023/06/18 00:58:08;;;;;;;13.20;11.90;;;20.90;88.40;;;;;;5032342;28;20301;-63
2023/06/18 01:00:35;;;;;;;12.03;10.87;;;20.90;88.30;;;;;;5047096;28;20276;-63
2023/06/18 01:03:16;;;;;;;11.70;10.47;;;20.90;88.20;;;;;;5041505;28;20668;-63
2023/06/18 01:06:03;;;;;;;11.77;10.53;;;20.90;88.20;;;;;;5048334;28;20201;-63
2023/06/18 01:08:33;;;;;;;13.17;8.93;;;20.90;88.20;;;;;;5041250;28;20639;-63
2023/06/18 01:11:05;;;;;;;21.23;10.03;;;20.80;88.30;;;;;;5049991;28;20234;-63
2023/06/18 01:13:36;;;;;;;10.90;9.73;;;20.80;88.30;;;;;;5049243;28;20194;-63
2023/06/18 01:16:08;;;;;;;10.90;9.93;;;20.80;88.50;;;;;;5042135;28;20199;-63
2023/06/18 01:18:45;;;;;;;11.27;10.20;;;20.70;88.70;;;;;;5042611;28;20199;-63
2023/06/18 01:21:20;;;;;;;11.47;10.37;;;20.70;88.80;;;;;;5040835;28;20209;-63
2023/06/18 01:23:54;;;;;;;11.40;10.20;;;20.60;88.90;;;;;;5043739;28;20623;-63
2023/06/18 01:26:22;;;;;;;16.37;10.23;;;20.60;89.20;;;;;;5042336;28;20633;-63
2023/06/18 01:28:51;;;;;;;12.00;10.67;;;20.50;89.10;;;;;;5031270;28;20205;-64
2023/06/18 01:31:21;;;;;;;12.27;10.97;;;20.50;89.30;;;;;;5042330;28;20187;-63
2023/06/18 01:33:51;;;;;;;13.43;11.90;;;20.50;89.60;;;;;;5042252;28;20202;-63
2023/06/18 01:36:49;;;;;;;13.47;12.10;;;20.50;89.90;;;;;;5041784;28;20221;-63
2023/06/18 01:39:23;;;;;;;15.67;11.73;;;20.50;90.10;;;;;;5025160;28;20223;-63
2023/06/18 01:41:57;;;;;;;14.50;12.90;;;20.50;90.10;;;;;;5043432;28;20198;-66
2023/06/18 01:44:29;;;;;;;15.10;13.57;;;20.50;90.20;;;;;;5046484;28;20197;-62
2023/06/18 01:46:58;;;;;;;13.77;12.37;;;20.50;90.30;;;;;;5042015;28;20249;-66
2023/06/18 01:49:27;;;;;;;13.77;12.37;;;20.50;90.40;;;;;;5043716;28;20537;-63
2023/06/18 01:52:00;;;;;;;17.13;12.90;;;20.50;90.40;;;;;;5049070;28;20202;-63
2023/06/18 01:54:28;;;;;;;15.90;12.37;;;20.50;90.40;;;;;;5045722;28;20211;-63
2023/06/18 01:56:55;;;;;;;14.53;11.77;;;20.50;90.40;;;;;;5031333;28;20640;-63
2023/06/18 01:59:23;;;;;;;11.93;10.73;;;20.40;90.40;;;;;;5034468;28;20317;-62
2023/06/18 02:01:50;;;;;;;12.57;10.77;;;20.40;90.40;;;;;;5032094;28;20207;-63
2023/06/18 02:04:20;;;;;;;14.43;10.20;;;20.40;90.40;;;;;;5030145;28;20207;-63
2023/06/18 02:06:47;;;;;;;11.90;10.60;;;20.40;90.40;;;;;;5049792;28;20282;-63
2023/06/18 02:09:15;;;;;;;14.10;10.60;;;20.40;90.50;;;;;;5034419;28;20682;-63
2023/06/18 02:11:41;;;;;;;16.33;10.80;;;20.30;90.50;;;;;;5035083;28;20225;-63
2023/06/18 02:14:09;;;;;;;13.30;9.83;;;20.30;90.50;;;;;;5045421;28;20211;-63
2023/06/18 02:16:36;;;;;;;12.57;11.27;;;20.40;90.50;;;;;;5033511;28;20203;-63
2023/06/18 02:19:03;;;;;;;15.60;11.80;;;20.30;90.40;;;;;;5033545;28;20206;-63
2023/06/18 02:21:30;;;;;;;12.13;10.90;;;20.30;90.40;;;;;;5042613;28;20249;-63
2023/06/18 02:23:57;;;;;;;12.50;11.30;;;20.30;90.50;;;;;;5025988;28;20254;-64
2023/06/18 02:26:24;;;;;;;12.00;10.80;;;20.30;90.50;;;;;;5033447;28;20214;-63
2023/06/18 02:28:52;;;;;;;12.73;11.43;;;20.30;90.60;;;;;;5047411;28;20276;-64
2023/06/18 02:31:19;;;;;;;14.10;10.13;;;20.30;90.60;;;;;;5049272;28;20230;-62
2023/06/18 02:33:47;;;;;;;11.93;10.83;;;20.30;90.60;;;;;;5045786;28;20637;-63
2023/06/18 02:36:14;;;;;;;11.93;10.60;;;20.20;90.60;;;;;;5045753;28;20199;-63
2023/06/18 02:38:41;;;;;;;20.83;13.27;;;20.20;90.70;;;;;;5035672;28;20330;-64
2023/06/18 02:41:07;;;;;;;15.53;11.17;;;20.20;90.70;;;;;;5052405;28;20211;-64
2023/06/18 02:43:36;;;;;;;14.10;10.60;;;20.20;90.70;;;;;;5049278;28;20538;-63
2023/06/18 02:46:03;;;;;;;12.27;10.57;;;20.20;90.80;;;;;;5032808;28;20213;-63
2023/06/18 02:48:30;;;;;;;12.80;9.53;;;20.20;90.90;;;;;;5026772;28;20298;-63
2023/06/18 02:50:57;;;;;;;12.30;10.10;;;20.20;90.90;;;;;;5035755;28;20712;-63
2023/06/18 02:53:25;;;;;;;11.10;9.47;;;20.20;90.90;;;;;;5033164;28;20214;-64
2023/06/18 02:55:52;;;;;;;13.30;9.40;;;20.20;90.90;;;;;;5031581;28;20245;-64
2023/06/18 02:58:28;;;;;;;18.87;9.97;;;20.20;90.90;;;;;;5044964;28;20637;-63
2023/06/18 03:01:00;;;;;;;11.23;9.57;;;20.10;90.90;;;;;;5021512;28;20304;-64
2023/06/18 03:03:31;;;;;;;14.37;11.07;;;20.10;90.90;;;;;;5062414;28;20202;-63
2023/06/18 03:05:59;;;;;;;10.17;9.10;;;20.10;90.90;;;;;;5029086;28;20202;-63
2023/06/18 03:08:27;;;;;;;11.30;10.00;;;20.10;90.90;;;;;;5045584;28;20650;-63
2023/06/18 03:10:55;;;;;;;12.17;9.00;;;20.10;90.90;;;;;;5023729;28;20199;-63
2023/06/18 03:13:22;;;;;;;15.70;9.30;;;20.10;90.90;;;;;;5040600;28;20635;-63
2023/06/18 03:15:53;;;;;;;13.13;9.60;;;20.10;90.90;;;;;;5034858;28;20204;-63
2023/06/18 03:18:20;;;;;;;11.63;8.40;;;20.10;91.00;;;;;;5030484;28;20213;-63
2023/06/18 03:20:47;;;;;;;9.87;8.80;;;20.10;91.00;;;;;;5034184;28;20217;-63
2023/06/18 03:23:15;;;;;;;10.53;8.40;;;20.10;91.10;;;;;;5046449;28;20230;-63
2023/06/18 03:25:46;;;;;;;9.57;8.43;;;20.10;91.10;;;;;;5034950;28;20297;-63
2023/06/18 03:28:19;;;;;;;11.47;8.20;;;20.10;91.10;;;;;;5034918;28;20203;-63
2023/06/18 03:30:46;;;;;;;11.90;7.93;;;20.10;91.10;;;;;;5060930;28;20216;-64
2023/06/18 03:33:13;;;;;;;11.83;8.50;;;20.10;91.30;;;;;;5030622;28;20203;-67
2023/06/18 03:35:43;;;;;;;8.57;7.67;;;20.10;91.00;;;;;;5036900;28;20211;-63
2023/06/18 03:38:11;;;;;;;11.57;8.10;;;20.10;91.30;;;;;;5060271;28;20246;-64
2023/06/18 03:40:38;;;;;;;10.63;8.50;;;20.10;91.00;;;;;;5060770;28;20366;-63
2023/06/18 03:43:07;;;;;;;9.50;8.47;;;20.10;91.00;;;;;;5028826;28;20203;-63
2023/06/18 03:45:34;;;;;;;13.00;7.50;;;20.10;91.00;;;;;;5045537;28;20191;-63
2023/06/18 03:48:01;;;;;;;9.23;8.33;;;20.20;90.90;;;;;;5031123;28;20556;-63
2023/06/18 03:50:37;;;;;;;11.07;8.33;;;20.10;90.90;;;;;;5030230;28;20232;-63
2023/06/18 03:53:04;;;;;;;11.90;8.07;;;20.10;90.80;;;;;;5026884;28;20213;-63
2023/06/18 03:55:36;;;;;;;12.50;7.80;;;20.10;90.70;;;;;;5028946;28;20298;-64
2023/06/18 03:58:04;;;;;;;11.33;6.93;;;20.10;90.70;;;;;;5065416;28;20211;-62
2023/06/18 04:00:34;;;;;;;11.17;7.53;;;20.10;90.70;;;;;;5034596;28;20238;-64
2023/06/18 04:03:02;;;;;;;14.50;7.73;;;20.00;90.70;;;;;;5033657;28;20217;-63
2023/06/18 04:05:29;;;;;;;9.70;7.60;;;20.00;90.80;;;;;;5043702;28;20666;-63
2023/06/18 04:07:56;;;;;;;11.50;7.87;;;20.00;90.90;;;;;;5041385;28;20675;-64
2023/06/18 04:10:24;;;;;;;9.53;7.93;;;20.00;90.90;;;;;;5033063;28;20220;-64
2023/06/18 04:12:52;;;;;;;11.67;8.27;;;20.00;91.00;;;;;;5031611;28;20591;-63
2023/06/18 04:15:19;;;;;;;9.80;8.03;;;20.00;90.90;;;;;;5023041;28;20221;-63
2023/06/18 04:17:46;;;;;;;8.67;7.23;;;19.90;90.90;;;;;;5034323;28;20278;-63
2023/06/18 04:20:14;;;;;;;9.53;8.53;;;19.90;90.90;;;;;;5064089;28;20218;-63
2023/06/18 04:22:43;;;;;;;14.30;8.53;;;19.90;90.90;;;;;;5043043;28;20368;-63
2023/06/18 04:25:11;;;;;;;10.50;9.27;;;19.90;91.00;;;;;;5034217;28;20199;-64
2023/06/18 04:27:39;;;;;;;13.13;8.43;;;19.90;91.10;;;;;;5027927;28;20196;-63
2023/06/18 04:30:07;;;;;;;11.90;8.53;;;19.90;91.10;;;;;;5048898;28;20543;-63
2023/06/18 04:32:35;;;;;;;15.07;8.70;;;19.90;91.20;;;;;;5045116;28;20224;-63
2023/06/18 04:35:03;;;;;;;8.57;7.77;;;19.90;91.20;;;;;;5031108;28;20212;-63
2023/06/18 04:37:31;;;;;;;11.37;8.97;;;20.00;91.20;;;;;;5028494;28;20638;-63
2023/06/18 04:39:59;;;;;;;12.60;8.57;;;20.00;91.20;;;;;;5033563;28;20707;-63
2023/06/18 04:42:26;;;;;;;11.70;8.97;;;20.10;91.30;;;;;;5028200;28;20309;-63
2023/06/18 04:44:53;;;;;;;10.77;9.70;;;20.10;91.30;;;;;;5043546;28;20527;-63
2023/06/18 04:47:22;;;;;;;11.27;9.30;;;20.20;91.30;;;;;;5024474;28;20229;-64
2023/06/18 04:49:50;;;;;;;16.33;9.43;;;20.20;91.30;;;;;;5031016;28;20818;-64
2023/06/18 04:52:17;;;;;;;13.23;9.17;;;20.20;91.20;;;;;;5043120;28;20206;-63
2023/06/18 04:54:45;;;;;;;17.83;10.00;;;20.30;91.20;;;;;;5030777;28;20198;-64
2023/06/18 04:57:12;;;;;;;20.20;10.47;;;20.40;91.20;;;;;;5034366;28;20616;-63
2023/06/18 04:59:40;;;;;;;12.37;10.63;;;20.40;91.30;;;;;;5034373;28;20293;-63
2023/06/18 05:02:09;;;;;;;15.67;9.67;;;20.50;91.30;;;;;;5028498;28;20200;-63
2023/06/18 05:04:36;;;;;;;17.00;10.23;;;20.50;91.20;;;;;;5043063;28;20549;-63
2023/06/18 05:07:03;;;;;;;14.93;9.57;;;20.60;91.20;;;;;;5031770;28;20198;-63
2023/06/18 05:09:33;;;;;;;13.30;9.33;;;20.70;91.30;;;;;;5024244;28;20241;-64
2023/06/18 05:12:00;;;;;;;10.30;9.20;;;20.80;91.30;;;;;;5031091;28;20199;-63
2023/06/18 05:14:29;;;;;;;15.47;9.27;;;20.90;91.30;;;;;;5058622;28;20584;-64
2023/06/18 05:16:56;;;;;;;11.57;8.73;;;21.10;91.30;;;;;;5046641;28;20222;-65
2023/06/18 05:19:24;;;;;;;12.10;9.40;;;21.20;91.30;;;;;;5043569;28;20648;-63
2023/06/18 05:21:51;;;;;;;9.83;8.53;;;21.30;91.20;;;;;;5044609;28;20222;-63
2023/06/18 05:24:22;;;;;;;13.10;9.70;;;21.50;91.10;;;;;;5032250;28;20209;-63
2023/06/18 05:26:49;;;;;;;13.90;10.07;;;21.60;90.80;;;;;;5029031;28;20225;-61
2023/06/18 05:29:18;;;;;;;11.10;9.30;;;21.70;90.60;;;;;;5030434;28;20206;-61
2023/06/18 05:31:47;;;;;;;12.33;9.33;;;21.90;90.40;;;;;;5058126;28;20249;-64
2023/06/18 05:34:22;;;;;;;12.60;8.73;;;22.10;90.30;;;;;;5031561;28;20206;-63
2023/06/18 05:36:49;;;;;;;10.63;7.87;;;22.20;90.00;;;;;;5034773;28;20211;-63
2023/06/18 05:39:16;;;;;;;8.97;8.00;;;22.40;89.70;;;;;;5032852;28;20467;-63
2023/06/18 05:41:44;;;;;;;10.77;8.97;;;22.60;89.10;;;;;;5030524;28;20333;-63
2023/06/18 05:44:12;;;;;;;11.13;9.30;;;22.70;87.70;;;;;;5032121;28;20199;-63
2023/06/18 05:46:39;;;;;;;11.20;8.70;;;22.80;87.40;;;;;;5044572;28;20194;-64
2023/06/18 05:49:07;;;;;;;12.33;8.70;;;23.00;86.20;;;;;;5029733;28;20214;-63
2023/06/18 05:51:35;;;;;;;10.90;9.20;;;23.00;85.20;;;;;;5033896;28;20268;-63
2023/06/18 05:54:04;;;;;;;9.47;8.03;;;23.10;85.40;;;;;;5032564;28;20206;-61
2023/06/18 05:56:32;;;;;;;9.63;8.50;;;23.20;85.40;;;;;;5028471;28;20296;-63
2023/06/18 05:58:59;;;;;;;10.73;9.60;;;23.30;85.20;;;;;;5031977;28;20514;-62
2023/06/18 06:01:33;;;;;;;11.37;9.00;;;23.40;84.80;;;;;;5053470;28;20215;-61
2023/06/18 06:04:01;;;;;;;9.43;8.50;;;23.50;84.10;;;;;;5029287;28;20205;-62
2023/06/18 06:06:29;;;;;;;11.93;8.90;;;23.60;83.60;;;;;;5041234;28;20199;-61
2023/06/18 06:08:56;;;;;;;11.03;9.27;;;23.70;83.30;;;;;;5048528;28;20191;-61
2023/06/18 06:11:23;;;;;;;13.33;9.17;;;23.80;82.70;;;;;;5033125;28;20543;-61
2023/06/18 06:13:50;;;;;;;10.17;9.20;;;24.00;81.90;;;;;;5026493;28;20299;-61
2023/06/18 06:16:17;;;;;;;10.53;9.43;;;24.00;81.40;;;;;;5059072;28;20294;-62
2023/06/18 06:18:45;;;;;;;10.10;9.10;;;24.20;81.40;;;;;;5029925;28;20211;-61
2023/06/18 06:21:13;;;;;;;11.40;9.83;;;24.30;79.90;;;;;;5023959;28;20310;-61
2023/06/18 06:23:40;;;;;;;12.17;9.87;;;24.30;78.90;;;;;;5031526;28;20313;-63
2023/06/18 06:26:07;;;;;;;9.97;8.93;;;24.40;78.60;;;;;;5029625;28;20203;-62
2023/06/18 06:28:35;;;;;;;10.73;9.63;;;24.50;78.60;;;;;;5042161;28;20511;-62
2023/06/18 06:31:05;;;;;;;14.00;12.27;;;24.60;78.60;;;;;;5032371;28;20199;-61
2023/06/18 06:33:32;;;;;;;14.33;12.40;;;24.70;77.30;;;;;;5030538;28;20215;-62
2023/06/18 06:35:59;;;;;;;15.90;11.17;;;24.80;76.80;;;;;;5047581;28;20285;-63
2023/06/18 06:38:27;;;;;;;17.03;11.80;;;24.90;77.00;;;;;;5029142;28;20212;-61
2023/06/18 06:40:54;;;;;;;14.57;10.97;;;25.00;76.60;;;;;;5034133;28;20562;-61
2023/06/18 06:43:23;;;;;;;15.20;10.33;;;25.10;76.10;;;;;;5035118;28;20254;-61
2023/06/18 06:46:19;;;;;;;11.70;10.27;;;25.20;75.60;;;;;;5041730;28;20213;-62
2023/06/18 06:48:55;;;;;;;12.50;10.63;;;25.40;76.00;;;;;;5050996;28;20559;-61
2023/06/18 06:51:53;;;;;;;14.20;12.27;;;25.50;76.20;;;;;;5019789;28;20638;-61
2023/06/18 06:54:20;;;;;;;12.57;11.27;;;25.70;75.90;;;;;;5033380;28;20205;-62
2023/06/18 06:56:47;;;;;;;13.17;11.87;;;25.80;74.40;;;;;;5034632;28;20221;-62
2023/06/18 06:59:15;;;;;;;14.47;12.20;;;25.90;74.60;;;;;;5031814;28;20325;-61
2023/06/18 07:01:43;;;;;;;13.80;12.30;;;26.00;74.20;;;;;;5029991;28;20237;-62
2023/06/18 07:04:11;;;;;;;12.93;11.57;;;26.10;73.50;;;;;;5046093;28;20203;-61
2023/06/18 07:06:38;;;;;;;13.93;12.43;;;26.20;73.70;;;;;;5050754;28;20263;-62
2023/06/18 07:09:06;;;;;;;13.30;11.90;;;26.40;74.20;;;;;;5047549;28;20196;-61
2023/06/18 07:11:36;;;;;;;14.30;11.53;;;26.50;74.10;;;;;;5048957;28;20202;-62
2023/06/18 07:14:04;;;;;;;14.17;12.43;;;26.70;73.40;;;;;;5047165;28;20201;-62
2023/06/18 07:16:32;;;;;;;15.60;11.57;;;27.00;72.40;;;;;;5047518;28;20198;-62
2023/06/18 07:19:01;;;;;;;15.17;11.97;;;27.10;71.70;;;;;;5045302;28;20268;-62
2023/06/18 07:21:28;;;;;;;13.70;12.23;;;27.30;69.90;;;;;;5049369;28;20250;-62
2023/06/18 07:23:55;;;;;;;13.10;11.57;;;27.40;70.50;;;;;;5045398;28;20296;-63
2023/06/18 07:26:22;;;;;;;16.23;11.60;;;27.60;71.00;;;;;;5048902;28;20210;-61
2023/06/18 07:28:49;;;;;;;13.63;11.87;;;27.80;70.90;;;;;;5048446;28;20213;-62
2023/06/18 07:31:16;;;;;;;13.53;12.13;;;27.90;70.50;;;;;;5048042;28;20222;-61
2023/06/18 07:33:44;;;;;;;12.30;11.27;;;28.10;70.10;;;;;;5042373;28;20207;-62
2023/06/18 07:36:10;;;;;;;11.67;10.53;;;28.30;68.10;;;;;;5045439;28;20260;-62
2023/06/18 07:38:38;;;;;;;11.50;10.50;;;28.30;67.90;;;;;;5048492;28;20608;-61
2023/06/18 07:41:05;;;;;;;13.43;11.40;;;28.50;68.50;;;;;;5047683;28;20223;-63
2023/06/18 07:43:32;;;;;;;12.43;9.93;;;28.50;65.60;;;;;;5042374;28;20494;-61
2023/06/18 07:45:59;;;;;;;12.57;9.93;;;28.50;66.70;;;;;;5046090;28;20522;-63
2023/06/18 07:48:26;;;;;;;11.80;10.60;;;28.70;67.00;;;;;;5050265;28;20209;-61
2023/06/18 07:50:53;;;;;;;11.67;8.97;;;28.80;66.90;;;;;;5046513;28;20533;-64
2023/06/18 07:53:20;;;;;;;10.33;9.17;;;29.00;66.70;;;;;;5041115;28;20280;-61
2023/06/18 07:55:47;;;;;;;10.77;9.73;;;29.20;66.30;;;;;;5040052;28;20207;-62
2023/06/18 07:58:14;;;;;;;13.20;8.90;;;29.30;64.30;;;;;;5043360;28;20630;-62
2023/06/18 08:00:41;;;;;;;17.67;9.90;;;29.40;64.20;;;;;;5032430;28;20563;-62
2023/06/18 08:03:09;;;;;;;10.17;9.10;;;29.50;64.30;;;;;;5047381;28;20290;-62
2023/06/18 08:05:36;;;;;;;13.10;9.37;;;29.60;64.20;;;;;;5045624;28;20587;-62
2023/06/18 08:08:03;;;;;;;9.87;8.30;;;29.70;63.70;;;;;;5044523;28;20201;-62
2023/06/18 08:10:30;;;;;;;9.00;8.20;;;29.80;63.60;;;;;;5030168;28;20529;-62
2023/06/18 08:12:57;;;;;;;10.90;9.80;;;29.90;62.90;;;;;;5049725;28;20194;-63
2023/06/18 08:15:24;;;;;;;13.27;11.23;;;29.90;61.20;;;;;;5044858;28;20202;-62
2023/06/18 08:17:52;;;;;;;12.37;9.90;;;29.90;60.10;;;;;;5044953;28;20542;-63
2023/06/18 08:20:19;;;;;;;10.03;9.03;;;29.80;59.70;;;;;;5041795;28;20206;-63
2023/06/18 08:22:47;;;;;;;12.67;8.70;;;29.80;60.00;;;;;;5044147;28;20574;-62
2023/06/18 08:25:14;;;;;;;11.17;8.30;;;29.80;59.40;;;;;;5044515;28;20542;-62
2023/06/18 08:27:41;;;;;;;10.47;7.40;;;29.80;58.50;;;;;;5045153;28;20227;-63
2023/06/18 08:30:08;;;;;;;7.43;6.73;;;29.80;59.10;;;;;;5041225;28;20203;-62
2023/06/18 08:32:38;;;;;;;8.90;6.63;;;29.80;59.20;;;;;;5040551;28;20253;-62
2023/06/18 08:35:06;;;;;;;7.07;6.47;;;29.90;58.80;;;;;;5042575;28;20207;-63
2023/06/18 08:37:33;;;;;;;7.37;5.90;;;30.00;57.50;;;;;;5042705;28;20263;-62
2023/06/18 08:40:00;;;;;;;7.17;6.57;;;30.00;57.80;;;;;;5047846;28;20191;-62
2023/06/18 08:42:27;;;;;;;15.97;7.13;;;30.10;57.40;;;;;;5046253;28;21477;-62
2023/06/18 08:44:55;;;;;;;9.17;6.23;;;30.20;57.80;;;;;;5043973;28;20210;-62
2023/06/18 08:47:22;;;;;;;9.77;6.40;;;30.20;58.00;;;;;;5045447;28;20195;-63
2023/06/18 08:49:51;;;;;;;6.57;5.90;;;30.40;57.40;;;;;;5041335;28;20265;-62
2023/06/18 08:52:20;;;;;;;10.97;5.93;;;30.50;56.10;;;;;;5044571;28;20204;-62
2023/06/18 08:54:54;;;;;;;7.87;5.30;;;30.50;55.50;;;;;;5044844;28;20277;-62
2023/06/18 08:57:28;;;;;;;7.60;5.53;;;30.50;56.20;;;;;;5048458;28;20195;-62
2023/06/18 08:59:59;;;;;;;7.93;6.23;;;30.60;56.70;;;;;;5047486;28;20210;-63
2023/06/18 09:02:29;;;;;;;7.87;6.67;;;30.70;56.00;;;;;;5047490;28;20219;-62
2023/06/18 09:04:58;;;;;;;6.33;5.77;;;30.80;56.70;;;;;;5040908;28;20191;-62
2023/06/18 09:07:25;;;;;;;6.67;5.97;;;30.90;56.60;;;;;;5043151;28;20630;-62
2023/06/18 09:09:53;;;;;;;6.33;5.73;;;31.00;56.10;;;;;;5040715;28;20337;-62
2023/06/18 09:12:20;;;;;;;6.80;6.20;;;31.00;55.10;;;;;;5025624;28;20298;-62
2023/06/18 09:14:47;;;;;;;8.17;6.60;;;31.00;55.10;;;;;;5045479;28;20699;-62
2023/06/18 09:17:16;;;;;;;7.10;6.40;;;31.10;54.80;;;;;;5043688;28;20216;-63
2023/06/18 09:19:45;;;;;;;7.10;6.50;;;31.10;54.30;;;;;;5044734;28;20207;-62
2023/06/18 09:22:13;;;;;;;9.10;6.47;;;31.20;53.70;;;;;;5040700;28;20292;-62
2023/06/18 09:24:44;;;;;;;7.60;6.27;;;31.20;53.90;;;;;;5028547;28;20204;-63
2023/06/18 09:27:11;;;;;;;6.77;5.97;;;31.30;53.50;;;;;;5045354;28;20202;-63
2023/06/18 09:29:41;;;;;;;7.63;6.50;;;31.30;54.20;;;;;;5044840;28;20214;-63
2023/06/18 09:32:13;;;;;;;9.20;6.03;;;31.30;53.50;;;;;;5040804;28;20648;-63
2023/06/18 09:34:43;;;;;;;6.07;5.57;;;31.20;53.40;;;;;;5049805;28;20213;-64
2023/06/18 09:37:13;;;;;;;8.47;5.77;;;31.20;52.80;;;;;;5048126;28;20525;-63
2023/06/18 09:39:41;;;;;;;5.80;5.23;;;31.30;54.20;;;;;;5043088;28;20249;-63
2023/06/18 09:42:13;;;;;;;6.17;5.50;;;31.50;53.90;;;;;;5042853;28;20222;-65
2023/06/18 09:44:45;;;;;;;6.07;5.47;;;31.70;54.30;;;;;;5039504;28;20273;-62
2023/06/18 09:47:14;;;;;;;6.33;5.73;;;31.80;52.60;;;;;;5043387;28;20331;-62
2023/06/18 09:49:50;;;;;;;6.53;5.87;;;32.00;52.80;;;;;;5022519;28;20538;-63
2023/06/18 09:52:22;;;;;;;6.70;6.10;;;32.10;52.70;;;;;;5030751;28;20242;-64
2023/06/18 09:54:50;;;;;;;6.70;6.00;;;32.20;52.20;;;;;;5058637;28;20206;-62
2023/06/18 09:57:17;;;;;;;6.30;5.63;;;32.20;52.80;;;;;;5039291;28;20633;-62
2023/06/18 09:59:44;;;;;;;7.73;6.97;;;32.30;52.10;;;;;;5039632;28;20543;-63
2023/06/18 10:02:23;;;;;;;6.87;6.17;;;32.40;51.80;;;;;;5020996;28;20215;-63
2023/06/18 10:04:50;;;;;;;9.77;5.03;;;32.40;50.50;;;;;;5042982;28;20195;-63
2023/06/18 10:07:19;;;;;;;5.93;5.43;;;32.50;50.10;;;;;;5046309;28;21313;-63
2023/06/18 10:09:48;;;;;;;6.40;5.80;;;32.60;50.10;;;;;;5041571;28;20286;-65
2023/06/18 10:12:15;;;;;;;9.67;8.07;;;32.70;50.30;;;;;;5045203;28;20204;-62
2023/06/18 10:14:43;;;;;;;8.53;7.00;;;32.80;49.20;;;;;;5050835;28;20206;-63
2023/06/18 10:17:23;;;;;;;7.70;7.00;;;32.80;50.20;;;;;;5045269;28;20280;-62
2023/06/18 10:20:03;;;;;;;9.63;7.13;;;32.80;50.00;;;;;;5047908;28;20564;-63
2023/06/18 10:22:40;;;;;;;7.40;6.70;;;32.80;51.10;;;;;;5045746;28;20669;-62
2023/06/18 10:25:08;;;;;;;7.70;6.70;;;32.80;51.20;;;;;;5045212;28;20226;-63
2023/06/18 10:27:35;;;;;;;9.13;5.93;;;32.80;51.20;;;;;;5046085;28;20203;-63
2023/06/18 10:30:03;;;;;;;6.70;6.03;;;32.80;51.10;;;;;;5049822;28;20210;-63
2023/06/18 10:32:33;;;;;;;9.63;6.20;;;32.90;50.80;;;;;;5046003;28;20253;-63
2023/06/18 10:35:05;;;;;;;9.07;7.17;;;33.00;49.90;;;;;;5049040;28;20199;-63
2023/06/18 10:37:34;;;;;;;7.50;6.20;;;33.10;49.20;;;;;;5049598;28;20191;-63
2023/06/18 10:40:05;;;;;;;6.87;6.27;;;33.10;49.30;;;;;;5046816;28;20206;-62
2023/06/18 10:42:34;;;;;;;8.83;5.77;;;33.30;49.50;;;;;;5044828;28;20223;-63
2023/06/18 10:45:15;;;;;;;5.97;5.47;;;33.30;49.50;;;;;;5050741;28;20282;-64
2023/06/18 10:47:43;;;;;;;6.30;5.73;;;33.40;49.40;;;;;;5045419;28;20202;-64
2023/06/18 10:50:12;;;;;;;7.60;5.93;;;33.40;49.50;;;;;;5046205;28;20599;-63
2023/06/18 10:52:50;;;;;;;6.70;5.90;;;33.50;49.30;;;;;;5048658;28;20294;-63
2023/06/18 10:55:26;;;;;;;6.20;5.60;;;33.60;49.40;;;;;;5048503;28;20214;-63
2023/06/18 10:58:04;;;;;;;7.10;6.33;;;33.70;49.10;;;;;;5047777;28;20547;-63
2023/06/18 11:00:40;;;;;;;6.00;5.50;;;33.90;48.80;;;;;;5047259;28;20558;-64
2023/06/18 11:03:17;;;;;;;6.37;5.73;;;33.90;49.00;;;;;;5047667;28;20207;-63
2023/06/18 11:05:51;;;;;;;7.67;6.20;;;34.00;48.10;;;;;;5048639;28;20249;-64
2023/06/18 11:08:33;;;;;;;6.73;6.00;;;34.10;48.80;;;;;;5049195;28;20252;-63
2023/06/18 11:11:03;;;;;;;6.17;5.57;;;34.10;46.70;;;;;;5045333;28;20198;-62
2023/06/18 11:13:41;;;;;;;6.07;5.47;;;34.10;47.00;;;;;;5046938;28;20510;-66
2023/06/18 11:16:11;;;;;;;8.47;5.67;;;34.00;47.10;;;;;;5042881;28;20202;-63
2023/06/18 11:18:42;;;;;;;5.80;5.30;;;34.00;47.50;;;;;;5042694;28;20203;-63
2023/06/18 11:21:18;;;;;;;10.50;6.67;;;34.00;46.60;;;;;;5047877;28;20199;-63
2023/06/18 11:23:46;;;;;;;7.73;5.73;;;34.00;45.70;;;;;;5042263;28;20292;-64
2023/06/18 11:26:18;;;;;;;9.00;6.27;;;34.00;45.90;;;;;;5044520;28;20629;-64
2023/06/18 11:28:47;;;;;;;6.10;5.50;;;34.10;46.80;;;;;;5047769;28;20286;-66
2023/06/18 11:31:14;;;;;;;6.70;6.10;;;34.10;46.60;;;;;;5047896;28;20187;-63
2023/06/18 11:33:47;;;;;;;5.70;5.20;;;34.20;46.50;;;;;;5032213;28;20583;-65
2023/06/18 11:36:17;;;;;;;6.27;5.53;;;34.30;47.70;;;;;;5048149;28;20265;-63
2023/06/18 11:38:47;;;;;;;8.77;5.83;;;34.30;47.80;;;;;;5049112;28;20207;-63
2023/06/18 11:41:20;;;;;;;6.70;5.90;;;34.40;47.50;;;;;;5043940;28;20279;-63
2023/06/18 11:43:51;;;;;;;6.70;6.10;;;34.40;47.10;;;;;;5045200;28;20201;-63
2023/06/18 11:46:28;;;;;;;7.70;5.23;;;34.50;47.00;;;;;;5048129;28;20428;-64
2023/06/18 11:48:56;;;;;;;5.20;4.70;;;34.50;47.10;;;;;;5050451;28;20197;-63
2023/06/18 11:51:24;;;;;;;7.20;4.97;;;34.60;46.80;;;;;;5045958;28;20214;-63
2023/06/18 11:53:53;;;;;;;6.00;5.37;;;34.60;46.20;;;;;;5045007;28;20285;-64
2023/06/18 11:56:29;;;;;;;5.63;5.13;;;34.70;45.20;;;;;;5045201;28;20202;-63
2023/06/18 11:58:57;;;;;;;6.03;5.47;;;34.70;46.20;;;;;;5044811;28;20282;-63
2023/06/18 12:01:31;;;;;;;5.90;5.40;;;34.80;46.00;;;;;;5041808;28;20251;-63
2023/06/18 12:04:08;;;;;;;5.73;5.07;;;34.90;45.30;;;;;;5046733;28;20207;-64
2023/06/18 12:06:37;;;;;;;4.90;4.50;;;34.90;44.30;;;;;;5047385;28;20213;-63
2023/06/18 12:09:09;;;;;;;5.63;5.03;;;34.90;44.50;;;;;;5043312;28;20206;-63
2023/06/18 12:11:59;;;;;;;5.63;5.10;;;34.80;45.10;;;;;;5044962;28;20256;-62
2023/06/18 12:14:46;;;;;;;7.13;5.50;;;34.80;44.20;;;;;;5045290;28;20565;-63
2023/06/18 12:17:35;;;;;;;5.20;4.80;;;34.70;43.10;;;;;;5043378;28;20629;-64
2023/06/18 12:20:12;;;;;;;6.03;5.40;;;34.60;44.60;;;;;;5043421;28;20203;-63
2023/06/18 12:22:41;;;;;;;8.87;4.90;;;34.50;46.30;;;;;;5050468;28;20248;-63
2023/06/18 12:25:09;;;;;;;6.40;5.27;;;34.60;46.30;;;;;;5046445;28;20616;-63
2023/06/18 12:27:36;;;;;;;5.67;5.17;;;34.60;45.60;;;;;;5046543;28;20202;-63
2023/06/18 12:30:08;;;;;;;5.03;4.63;;;34.60;45.60;;;;;;5039529;28;20206;-63
2023/06/18 12:32:36;;;;;;;5.30;4.90;;;34.70;45.90;;;;;;5043697;28;20222;-64
2023/06/18 12:35:14;;;;;;;6.83;5.27;;;34.70;45.70;;;;;;5044633;28;20215;-63
2023/06/18 12:37:46;;;;;;;5.60;5.00;;;34.80;44.90;;;;;;5039207;28;20640;-63
2023/06/18 12:40:16;;;;;;;5.50;5.00;;;34.80;45.20;;;;;;5044357;28;20278;-63
2023/06/18 12:42:43;;;;;;;5.43;4.93;;;34.80;44.40;;;;;;5043940;28;20227;-64
2023/06/18 12:45:10;;;;;;;7.13;5.47;;;34.80;43.60;;;;;;5043026;28;20265;-63
2023/06/18 12:47:45;;;;;;;7.17;4.67;;;34.80;42.90;;;;;;5043021;28;20195;-63
2023/06/18 12:50:20;;;;;;;5.00;4.60;;;34.70;44.50;;;;;;5043366;28;20202;-63